Time;durP1;ratioP1;P1;durP2;ratioP2;P2;SDS_P1;SDS_P2;PMS_P1;PMS_P2;Temp;Humidity;BMP_temperature;BMP_pressure;BME280_temperature;BME280_humidity;BME280_pressure;Samples;Min_cycle;Max_cycle;Signal;HPM_P1;HPM_P2
2021/10/19 00:01:26;;;;;;;;;;;;;;;4.77;63.31;99468.13;4853364;29;19924;-76
2021/10/19 00:03:51;;;;;;;;;;;;;;;4.82;63.13;99469.06;4870843;29;19932;-76
2021/10/19 00:06:17;;;;;;;;;;;;;;;4.88;63.52;99468.25;4872161;29;19978;-76
2021/10/19 00:08:42;;;;;;;;;;;;;;;4.93;63.08;99466.56;4854411;29;19923;-76
2021/10/19 00:11:08;;;;;;;;;;;;;;;4.99;63.76;99476.91;4888105;29;19928;-75
2021/10/19 00:13:36;;;;;;;;;;;;;;;5.07;63.42;99467.53;4887877;29;20074;-75
2021/10/19 00:16:02;;;;;;;;;;;;;;;5.11;62.38;99474.47;4870432;29;20380;-75
2021/10/19 00:18:28;;;;;;;;;;;;;;;5.15;63.35;99472.75;4887495;29;20403;-75
2021/10/19 00:20:53;;;;;;;;;;;;;;;5.14;63.01;99468.44;4857029;29;19923;-77
2021/10/19 00:23:19;;;;;;;;;;;;;;;5.19;63.11;99476.22;4882409;29;19930;-78
2021/10/19 00:25:45;;;;;;;;;;;;;;;5.19;63.00;99476.22;4897469;29;19924;-76
2021/10/19 00:28:10;;;;;;;;;;;;;;;5.24;62.75;99474.53;4879557;29;19927;-75
2021/10/19 00:30:36;;;;;;;;;;;;;;;5.26;62.99;99481.47;4895209;29;19970;-74
2021/10/19 00:33:02;;;;;;;;;;;;;;;5.24;62.87;99469.38;4901153;29;19931;-76
2021/10/19 00:35:28;;;;;;;;;;;;;;;5.27;62.81;99474.56;4877419;29;19956;-74
2021/10/19 00:37:53;;;;;;;;;;;;;;;5.32;63.16;99475.47;4878053;29;19923;-77
2021/10/19 00:40:19;;;;;;;;;;;;;;;5.36;62.98;99478.94;4861839;29;19927;-75
2021/10/19 00:42:45;;;;;;;;;;;;;;;5.39;62.49;99474.69;4888426;29;19924;-75
2021/10/19 00:45:11;;;;;;;;;;;;;;;5.43;62.92;99485.88;4876322;29;19959;-76
2021/10/19 00:47:41;;;;;;;;;;;;;;;5.48;62.66;99468.72;4869157;29;19983;-75
2021/10/19 00:50:06;;;;;;;;;;;;;;;5.51;62.09;99470.44;4875821;29;19934;-74
2021/10/19 00:52:32;;;;;;;;;;;;;;;5.53;62.71;99476.47;4877007;29;19927;-75
2021/10/19 00:54:59;;;;;;;;;;;;;;;5.58;62.98;99477.38;4861975;29;19931;-74
2021/10/19 00:57:24;;;;;;;;;;;;;;;5.62;62.37;99473.09;4875621;29;19992;-75
2021/10/19 00:59:50;;;;;;;;;;;;;;;5.62;62.78;99473.97;4876208;29;19924;-76
2021/10/19 01:02:16;;;;;;;;;;;;;;;5.61;62.56;99469.66;4861055;29;20018;-75
2021/10/19 01:04:42;;;;;;;;;;;;;;;5.61;61.65;99474.81;4888339;29;19928;-76
2021/10/19 01:07:08;;;;;;;;;;;;;;;5.60;62.92;99474.78;4887203;29;19927;-77
2021/10/19 01:09:35;;;;;;;;;;;;;;;5.58;62.70;99469.63;4877089;29;19974;-76
2021/10/19 01:12:01;;;;;;;;;;;;;;;5.63;62.45;99485.13;4873869;29;19930;-74
2021/10/19 01:14:26;;;;;;;;;;;;;;;5.65;62.22;99486.00;4874114;29;19923;-75
2021/10/19 01:16:52;;;;;;;;;;;;;;;5.67;62.20;99479.16;4875380;29;19950;-76
2021/10/19 01:19:24;;;;;;;;;;;;;;;5.73;62.47;99480.03;4860964;29;19923;-75
2021/10/19 01:21:53;;;;;;;;;;;;;;;5.78;62.17;99486.97;4877490;29;19923;-76
2021/10/19 01:24:19;;;;;;;;;;;;;;;5.78;61.90;99480.06;4891753;29;21110;-75
2021/10/19 01:26:45;;;;;;;;;;;;;;;5.73;62.06;99492.09;4888323;29;20070;-75
2021/10/19 01:29:11;;;;;;;;;;;;;;;5.68;62.61;99486.88;4862247;29;20297;-76
2021/10/19 01:31:36;;;;;;;;;;;;;;;5.70;61.55;99494.66;4893047;29;19994;-75
2021/10/19 01:34:02;;;;;;;;;;;;;;;5.72;62.06;99493.81;4893799;29;20412;-74
2021/10/19 01:36:28;;;;;;;;;;;;;;;5.73;61.88;99495.53;4888801;29;20079;-74
2021/10/19 01:38:53;;;;;;;;;;;;;;;5.76;62.80;99497.25;4892723;29;19960;-76
2021/10/19 01:41:19;;;;;;;;;;;;;;;5.79;62.15;99493.84;4895399;29;19923;-76
2021/10/19 01:43:48;;;;;;;;;;;;;;;5.78;61.82;99492.13;4880423;29;20019;-75
2021/10/19 01:46:14;;;;;;;;;;;;;;;5.76;62.03;99505.00;4897656;29;19960;-74
2021/10/19 01:48:41;;;;;;;;;;;;;;;5.79;61.95;99504.19;4903977;29;19934;-75
2021/10/19 01:51:06;;;;;;;;;;;;;;;5.79;62.19;99499.00;4896065;29;20380;-76
2021/10/19 01:53:32;;;;;;;;;;;;;;;5.77;62.30;99505.88;4897943;29;19931;-76
2021/10/19 01:55:58;;;;;;;;;;;;;;;5.77;62.40;99506.72;4879455;29;19958;-77
2021/10/19 01:58:27;;;;;;;;;;;;;;;5.79;62.13;99510.19;4882196;29;20339;-76
2021/10/19 02:00:53;;;;;;;;;;;;;;;5.80;62.21;99513.66;4889944;29;19923;-75
2021/10/19 02:03:20;;;;;;;;;;;;;;;5.84;62.13;99512.81;4876954;29;19927;-78
2021/10/19 02:05:47;;;;;;;;;;;;;;;5.84;62.18;99515.41;4890920;29;20506;-76
2021/10/19 02:08:18;;;;;;;;;;;;;;;5.85;61.98;99517.97;4861349;29;20329;-76
2021/10/19 02:10:45;;;;;;;;;;;;;;;5.87;61.88;99524.03;4861250;29;20031;-78
2021/10/19 02:13:13;;;;;;;;;;;;;;;5.90;61.86;99518.00;4878266;29;20293;-76
2021/10/19 02:15:39;;;;;;;;;;;;;;;5.85;61.51;99514.53;4876178;29;19987;-77
2021/10/19 02:18:19;;;;;;;;;;;;;;;5.79;62.28;99523.09;4877494;29;20336;-75
2021/10/19 02:20:45;;;;;;;;;;;;;;;5.80;62.37;99529.16;4889106;29;19923;-78
2021/10/19 02:23:11;;;;;;;;;;;;;;;5.81;61.89;99528.28;4886522;29;19946;-77
2021/10/19 02:25:37;;;;;;;;;;;;;;;5.82;62.01;99533.44;4875004;29;19946;-75
2021/10/19 02:28:06;;;;;;;;;;;;;;;5.82;61.52;99532.59;4874899;29;20147;-78
2021/10/19 02:30:31;;;;;;;;;;;;;;;5.82;62.15;99532.59;4859177;29;19968;-77
2021/10/19 02:32:57;;;;;;;;;;;;;;;5.80;62.28;99536.91;4874235;29;19963;-77
2021/10/19 02:35:25;;;;;;;;;;;;;;;5.71;61.70;99538.53;4888563;29;20105;-75
2021/10/19 02:37:53;;;;;;;;;;;;;;;5.56;61.75;99530.72;4902680;29;19923;-76
2021/10/19 02:40:19;;;;;;;;;;;;;;;5.46;61.78;99536.63;4862236;29;19932;-76
2021/10/19 02:42:45;;;;;;;;;;;;;;;5.43;61.75;99540.91;4888629;29;19936;-76
2021/10/19 02:45:11;;;;;;;;;;;;;;;5.43;62.05;99543.50;4899909;29;19930;-76
2021/10/19 02:47:37;;;;;;;;;;;;;;;5.47;61.97;99546.09;4895150;29;19979;-74
2021/10/19 02:50:03;;;;;;;;;;;;;;;5.52;62.23;99547.00;4875134;29;19931;-76
2021/10/19 02:52:28;;;;;;;;;;;;;;;5.50;61.56;99546.13;4887925;29;20483;-74
2021/10/19 02:54:54;;;;;;;;;;;;;;;5.49;61.87;99549.56;4887538;29;19976;-77
2021/10/19 02:57:20;;;;;;;;;;;;;;;5.47;62.26;99546.09;4874282;29;20303;-75
2021/10/19 02:59:45;;;;;;;;;;;;;;;5.38;62.14;99544.31;4887575;29;19923;-75
2021/10/19 03:02:11;;;;;;;;;;;;;;;5.24;61.47;99554.53;4890135;29;19923;-74
2021/10/19 03:04:36;;;;;;;;;;;;;;;5.12;61.90;99552.69;4885885;29;19999;-75
2021/10/19 03:07:02;;;;;;;;;;;;;;;4.98;62.02;99557.72;4874791;29;19927;-76
2021/10/19 03:09:28;;;;;;;;;;;;;;;4.92;62.30;99552.50;4865807;29;20010;-76
2021/10/19 03:11:53;;;;;;;;;;;;;;;4.88;62.62;99553.31;4858288;29;19933;-75
2021/10/19 03:14:19;;;;;;;;;;;;;;;4.90;62.79;99559.38;4885265;29;19923;-74
2021/10/19 03:16:44;;;;;;;;;;;;;;;4.95;62.61;99562.88;4881687;29;20033;-75
2021/10/19 03:19:10;;;;;;;;;;;;;;;4.99;62.66;99564.59;4889195;29;20463;-72
2021/10/19 03:21:35;;;;;;;;;;;;;;;5.02;62.81;99564.63;4874381;29;19931;-76
2021/10/19 03:24:01;;;;;;;;;;;;;;;5.05;62.97;99566.41;4887323;29;19970;-75
2021/10/19 03:26:26;;;;;;;;;;;;;;;5.09;62.47;99569.03;4888937;29;19968;-75
2021/10/19 03:28:52;;;;;;;;;;;;;;;5.07;62.31;99562.97;4876749;29;19934;-77
2021/10/19 03:31:17;;;;;;;;;;;;;;;5.01;61.51;99577.53;4886833;29;19927;-77
2021/10/19 03:33:43;;;;;;;;;;;;;;;5.04;62.92;99575.84;4887524;29;19980;-77
2021/10/19 03:36:09;;;;;;;;;;;;;;;5.06;62.63;99581.88;4875578;29;19924;-76
2021/10/19 03:38:35;;;;;;;;;;;;;;;5.11;62.33;99569.91;4891563;29;19927;-75
2021/10/19 03:41:01;;;;;;;;;;;;;;;5.10;62.30;99575.03;4891271;29;19928;-76
2021/10/19 03:43:26;;;;;;;;;;;;;;;5.03;62.63;99576.69;4877902;29;19937;-76
2021/10/19 03:45:52;;;;;;;;;;;;;;;5.07;62.77;99570.72;4889173;29;19971;-75
2021/10/19 03:48:17;;;;;;;;;;;;;;;5.11;62.04;99576.75;4890764;29;20360;-76
2021/10/19 03:50:43;;;;;;;;;;;;;;;5.16;62.49;99569.09;4888995;29;20360;-75
2021/10/19 03:53:09;;;;;;;;;;;;;;;5.16;62.39;99569.09;4876969;29;20408;-77
2021/10/19 03:55:34;;;;;;;;;;;;;;;5.17;61.24;99571.66;4878070;29;20002;-74
2021/10/19 03:58:00;;;;;;;;;;;;;;;5.10;61.72;99585.34;4877606;29;20372;-75
2021/10/19 04:00:25;;;;;;;;;;;;;;;5.03;61.00;99579.25;4876552;29;19923;-77
2021/10/19 04:02:51;;;;;;;;;;;;;;;4.95;61.69;99583.50;4892782;29;19927;-75
2021/10/19 04:05:16;;;;;;;;;;;;;;;4.89;61.96;99589.44;4893300;29;19939;-74
2021/10/19 04:07:44;;;;;;;;;;;;;;;4.79;61.93;99588.47;4892492;29;19983;-77
2021/10/19 04:10:10;;;;;;;;;;;;;;;4.74;62.01;99592.72;4877111;29;20389;-75
2021/10/19 04:12:36;;;;;;;;;;;;;;;4.71;61.67;99592.69;4890241;29;19971;-75
2021/10/19 04:15:01;;;;;;;;;;;;;;;4.72;61.59;99604.72;4877538;29;20399;-75
2021/10/19 04:17:28;;;;;;;;;;;;;;;4.80;61.67;99599.66;4889927;29;20026;-76
2021/10/19 04:19:56;;;;;;;;;;;;;;;4.88;61.37;99603.16;4878156;29;20076;-76
2021/10/19 04:22:22;;;;;;;;;;;;;;;5.02;61.31;99599.91;4890079;29;19934;-77
2021/10/19 04:24:48;;;;;;;;;;;;;;;5.06;61.06;99596.50;4862417;29;20303;-76
2021/10/19 04:27:14;;;;;;;;;;;;;;;5.14;61.52;99602.59;4889353;29;20002;-77
2021/10/19 04:29:39;;;;;;;;;;;;;;;5.23;60.19;99599.22;4876730;29;20770;-76
2021/10/19 04:32:05;;;;;;;;;;;;;;;5.29;60.61;99609.63;4891551;29;20315;-78
2021/10/19 04:34:31;;;;;;;;;;;;;;;5.31;60.70;99607.91;4885815;29;19998;-75
2021/10/19 04:36:56;;;;;;;;;;;;;;;5.37;60.28;99614.84;4865872;29;20043;-75
2021/10/19 04:39:22;;;;;;;;;;;;;;;5.39;60.56;99614.03;4889038;29;20416;-77
2021/10/19 04:41:47;;;;;;;;;;;;;;;5.42;60.19;99619.19;4888612;29;19977;-75
2021/10/19 04:44:13;;;;;;;;;;;;;;;5.50;60.08;99618.41;4880115;29;19924;-76
2021/10/19 04:46:42;;;;;;;;;;;;;;;5.52;60.05;99614.97;4883794;29;19971;-77
2021/10/19 04:49:09;;;;;;;;;;;;;;;5.52;59.51;99621.88;4876072;29;20006;-78
2021/10/19 04:51:35;;;;;;;;;;;;;;;5.54;60.02;99622.75;4876558;29;19982;-77
2021/10/19 04:54:00;;;;;;;;;;;;;;;5.58;59.92;99629.69;4879766;29;19931;-77
2021/10/19 04:56:26;;;;;;;;;;;;;;;5.65;60.17;99631.44;4878087;29;21372;-75
2021/10/19 04:58:51;;;;;;;;;;;;;;;5.68;59.96;99628.88;4888464;29;19923;-76
2021/10/19 05:01:17;;;;;;;;;;;;;;;5.67;59.88;99632.31;4861172;29;19982;-76
2021/10/19 05:03:46;;;;;;;;;;;;;;;5.72;59.97;99630.66;4888747;29;19928;-77
2021/10/19 05:06:12;;;;;;;;;;;;;;;5.77;59.68;99635.00;4877179;29;19923;-79
2021/10/19 05:08:38;;;;;;;;;;;;;;;5.87;59.83;99639.34;4866650;29;20273;-77
2021/10/19 05:11:03;;;;;;;;;;;;;;;5.92;59.83;99637.69;4882826;29;19924;-78
2021/10/19 05:13:29;;;;;;;;;;;;;;;5.94;59.33;99648.88;4891816;29;19928;-76
2021/10/19 05:15:54;;;;;;;;;;;;;;;5.96;59.03;99641.19;4876733;29;19923;-77
2021/10/19 05:18:20;;;;;;;;;;;;;;;6.02;59.21;99644.69;4890075;29;20521;-76
2021/10/19 05:20:45;;;;;;;;;;;;;;;5.98;59.17;99645.47;4890458;29;20022;-78
2021/10/19 05:23:12;;;;;;;;;;;;;;;6.01;58.50;99652.41;4876812;29;19972;-76
2021/10/19 05:25:38;;;;;;;;;;;;;;;5.99;58.68;99654.97;4877390;29;20009;-77
2021/10/19 05:28:04;;;;;;;;;;;;;;;5.98;59.55;99652.34;4876171;29;20949;-75
2021/10/19 05:30:29;;;;;;;;;;;;;;;5.99;59.35;99657.53;4888147;29;19930;-77
2021/10/19 05:32:55;;;;;;;;;;;;;;;6.13;58.97;99659.38;4875484;29;19927;-77
2021/10/19 05:35:20;;;;;;;;;;;;;;;6.24;59.30;99660.34;4887899;29;19930;-76
2021/10/19 05:37:46;;;;;;;;;;;;;;;6.32;58.55;99656.06;4887370;29;19927;-76
2021/10/19 05:40:11;;;;;;;;;;;;;;;6.30;58.53;99657.78;4887514;29;19930;-75
2021/10/19 05:42:37;;;;;;;;;;;;;;;6.29;58.00;99661.22;4888061;29;19938;-75
2021/10/19 05:45:04;;;;;;;;;;;;;;;6.25;57.88;99659.50;4875457;29;19946;-76
2021/10/19 05:47:30;;;;;;;;;;;;;;;6.19;57.83;99667.19;4874572;29;20329;-77
2021/10/19 05:49:55;;;;;;;;;;;;;;;6.14;58.46;99674.03;4875182;29;19934;-77
2021/10/19 05:52:21;;;;;;;;;;;;;;;6.16;58.24;99668.03;4875513;29;20045;-76
2021/10/19 05:54:46;;;;;;;;;;;;;;;6.08;58.52;99676.56;4874342;29;19928;-75
2021/10/19 05:57:12;;;;;;;;;;;;;;;6.00;57.96;99676.50;4874502;29;19923;-75
2021/10/19 05:59:37;;;;;;;;;;;;;;;5.88;57.66;99674.66;4888163;29;20304;-78
2021/10/19 06:02:03;;;;;;;;;;;;;;;5.86;57.50;99674.66;4888087;29;19923;-76
2021/10/19 06:04:29;;;;;;;;;;;;;;;5.90;58.88;99680.72;4886042;29;20018;-76
2021/10/19 06:06:55;;;;;;;;;;;;;;;5.91;58.11;99682.44;4875039;29;19923;-76
2021/10/19 06:09:21;;;;;;;;;;;;;;;5.90;57.63;99693.63;4873858;29;19946;-76
2021/10/19 06:11:47;;;;;;;;;;;;;;;5.94;57.73;99695.38;4887907;29;19928;-77
2021/10/19 06:14:12;;;;;;;;;;;;;;;5.88;57.55;99696.22;4868773;29;19934;-75
2021/10/19 06:16:38;;;;;;;;;;;;;;;5.86;58.07;99700.50;4872557;29;19923;-74
2021/10/19 06:19:03;;;;;;;;;;;;;;;5.90;58.18;99695.34;4874517;29;19934;-77
2021/10/19 06:21:29;;;;;;;;;;;;;;;5.84;57.76;99699.59;4887385;29;19929;-76
2021/10/19 06:23:55;;;;;;;;;;;;;;;5.81;57.40;99698.72;4875433;29;19923;-75
2021/10/19 06:26:20;;;;;;;;;;;;;;;5.84;57.40;99702.19;4876856;29;19945;-77
2021/10/19 06:28:46;;;;;;;;;;;;;;;5.83;57.42;99702.19;4884943;29;19966;-75
2021/10/19 06:31:11;;;;;;;;;;;;;;;5.86;57.87;99707.34;4876127;29;19928;-76
2021/10/19 06:33:37;;;;;;;;;;;;;;;5.94;58.07;99713.47;4886886;29;19923;-77
2021/10/19 06:36:04;;;;;;;;;;;;;;;6.02;57.97;99705.81;4889049;29;20368;-76
2021/10/19 06:38:30;;;;;;;;;;;;;;;6.06;57.62;99704.97;4888122;29;19986;-78
2021/10/19 06:40:55;;;;;;;;;;;;;;;6.13;57.30;99706.78;4875237;29;19924;-77
2021/10/19 06:43:21;;;;;;;;;;;;;;;6.18;57.41;99714.56;4888182;29;20335;-74
2021/10/19 06:45:46;;;;;;;;;;;;;;;6.26;56.99;99707.72;4888338;29;19930;-75
2021/10/19 06:48:11;;;;;;;;;;;;;;;6.32;57.29;99704.31;4888365;29;19927;-75
2021/10/19 06:50:37;;;;;;;;;;;;;;;6.36;57.37;99708.66;4871470;29;19938;-75
2021/10/19 06:53:03;;;;;;;;;;;;;;;6.40;56.92;99710.38;4894758;29;19950;-76
2021/10/19 06:55:28;;;;;;;;;;;;;;;6.38;57.27;99712.13;4875163;29;19990;-76
2021/10/19 06:57:55;;;;;;;;;;;;;;;6.37;56.62;99705.22;4891487;29;19967;-75
2021/10/19 07:00:20;;;;;;;;;;;;;;;6.36;56.98;99707.78;4875427;29;20046;-77
2021/10/19 07:02:46;;;;;;;;;;;;;;;6.42;56.84;99711.25;4887212;29;20030;-78
2021/10/19 07:05:12;;;;;;;;;;;;;;;6.42;56.23;99708.69;4886624;29;20287;-76
2021/10/19 07:07:41;;;;;;;;;;;;;;;6.37;56.58;99704.34;4886419;29;19931;-76
2021/10/19 07:10:10;;;;;;;;;;;;;;;6.31;56.49;99713.78;4873153;29;20370;-76
2021/10/19 07:12:39;;;;;;;;;;;;;;;6.22;57.00;99711.16;4892043;29;19946;-77
2021/10/19 07:15:05;;;;;;;;;;;;;;;6.25;56.13;99718.03;4877402;29;19972;-77
2021/10/19 07:17:31;;;;;;;;;;;;;;;6.28;57.02;99716.38;4891266;29;20382;-75
2021/10/19 07:19:57;;;;;;;;;;;;;;;6.36;57.37;99719.00;4888619;29;19923;-75
2021/10/19 07:22:23;;;;;;;;;;;;;;;6.28;56.69;99715.47;4862369;29;19982;-78
2021/10/19 07:24:48;;;;;;;;;;;;;;;6.37;56.81;99725.03;4889494;29;20587;-76
2021/10/19 07:27:14;;;;;;;;;;;;;;;6.43;56.55;99720.75;4878901;29;20026;-78
2021/10/19 07:29:39;;;;;;;;;;;;;;;6.51;56.50;99725.13;4878569;29;19967;-76
2021/10/19 07:32:05;;;;;;;;;;;;;;;6.54;56.48;99728.56;4878274;29;19962;-77
2021/10/19 07:34:31;;;;;;;;;;;;;;;6.60;56.29;99728.63;4893111;29;20462;-76
2021/10/19 07:36:57;;;;;;;;;;;;;;;6.70;56.54;99720.94;4890560;29;19924;-76
2021/10/19 07:39:23;;;;;;;;;;;;;;;6.69;56.41;99720.06;4877075;29;20301;-77
2021/10/19 07:41:49;;;;;;;;;;;;;;;6.79;56.39;99723.56;4879297;29;20071;-74
2021/10/19 07:44:15;;;;;;;;;;;;;;;6.86;56.72;99730.50;4872124;29;19923;-75
2021/10/19 07:46:41;;;;;;;;;;;;;;;6.93;56.57;99727.09;4879191;29;19927;-77
2021/10/19 07:49:07;;;;;;;;;;;;;;;6.89;56.19;99724.47;4876479;29;20022;-76
2021/10/19 07:51:33;;;;;;;;;;;;;;;6.57;56.50;99687.22;4876827;29;20042;-75
2021/10/19 07:53:58;;;;;;;;;;;;;;;6.82;56.19;99728.75;4889707;29;20018;-75
2021/10/19 07:56:24;;;;;;;;;;;;;;;6.86;56.02;99727.91;4877462;29;19966;-78
2021/10/19 07:58:49;;;;;;;;;;;;;;;6.90;56.35;99727.06;4878361;29;19923;-75
2021/10/19 08:01:15;;;;;;;;;;;;;;;6.87;56.14;99721.88;4890295;29;19924;-76
2021/10/19 08:03:41;;;;;;;;;;;;;;;6.85;56.20;99728.78;4889762;29;20409;-79
2021/10/19 08:06:07;;;;;;;;;;;;;;;6.91;56.32;99730.50;4888491;29;20419;-77
2021/10/19 08:08:34;;;;;;;;;;;;;;;6.99;56.19;99730.53;4890499;29;19982;-75
2021/10/19 08:11:00;;;;;;;;;;;;;;;7.00;55.86;99742.63;4860781;29;19987;-76
2021/10/19 08:13:25;;;;;;;;;;;;;;;7.03;55.51;99737.47;4883080;29;20391;-75
2021/10/19 08:15:52;;;;;;;;;;;;;;;7.11;56.20;99746.16;4888337;29;20018;-77
2021/10/19 08:18:17;;;;;;;;;;;;;;;7.17;55.83;99743.56;4876389;29;19923;-78
2021/10/19 08:20:43;;;;;;;;;;;;;;;7.20;55.13;99751.34;4889166;29;20437;-77
2021/10/19 08:23:09;;;;;;;;;;;;;;;7.17;55.46;99756.50;4868654;29;19927;-78
2021/10/19 08:25:35;;;;;;;;;;;;;;;7.17;54.90;99755.66;4876284;29;20032;-77
2021/10/19 08:28:00;;;;;;;;;;;;;;;7.13;54.88;99754.78;4861358;29;20372;-76
2021/10/19 08:30:26;;;;;;;;;;;;;;;7.11;55.12;99753.91;4889062;29;19934;-77
2021/10/19 08:32:52;;;;;;;;;;;;;;;7.12;54.76;99753.06;4893323;29;19934;-76
2021/10/19 08:35:18;;;;;;;;;;;;;;;7.17;55.08;99761.69;4868790;29;19934;-78
2021/10/19 08:37:45;;;;;;;;;;;;;;;7.23;55.01;99753.94;4860993;29;19930;-78
2021/10/19 08:40:11;;;;;;;;;;;;;;;7.29;54.74;99760.00;4864952;29;19924;-77
2021/10/19 08:42:42;;;;;;;;;;;;;;;7.24;54.47;99763.44;4896217;29;20330;-78
2021/10/19 08:45:08;;;;;;;;;;;;;;;7.26;54.86;99762.59;4891049;29;19924;-77
2021/10/19 08:47:34;;;;;;;;;;;;;;;7.28;54.85;99755.69;4876303;29;20027;-76
2021/10/19 08:49:59;;;;;;;;;;;;;;;7.34;54.58;99758.31;4868166;29;19951;-79
2021/10/19 08:52:25;;;;;;;;;;;;;;;7.21;54.55;99753.06;4879114;29;21362;-78
2021/10/19 08:54:50;;;;;;;;;;;;;;;7.20;54.81;99759.09;4899534;29;19910;-78
2021/10/19 08:57:16;;;;;;;;;;;;;;;7.26;54.59;99760.00;4892681;29;19923;-76
2021/10/19 08:59:46;;;;;;;;;;;;;;;7.31;54.59;99763.47;4883941;29;19939;-77
2021/10/19 09:02:12;;;;;;;;;;;;;;;7.36;54.45;99756.59;4883560;29;19920;-76
2021/10/19 09:04:38;;;;;;;;;;;;;;;7.36;53.61;99766.97;4889594;29;20046;-75
2021/10/19 09:07:04;;;;;;;;;;;;;;;7.37;54.41;99763.50;4876264;29;20014;-76
2021/10/19 09:09:30;;;;;;;;;;;;;;;7.36;53.79;99761.78;4875916;29;20364;-74
2021/10/19 09:11:57;;;;;;;;;;;;;;;7.33;53.41;99766.94;4867871;29;20010;-76
2021/10/19 09:14:48;;;;;;;;;;;;;;;7.29;53.35;99767.78;4874595;29;20712;-76
2021/10/19 09:17:14;;;;;;;;;;;;;;;7.31;53.39;99761.75;4872563;29;19989;-77
2021/10/19 09:19:41;;;;;;;;;;;;;;;7.34;53.50;99769.53;4875531;29;20085;-78
2021/10/19 09:22:08;;;;;;;;;;;;;;;7.36;53.57;99774.72;4888004;29;19927;-76
2021/10/19 09:24:40;;;;;;;;;;;;;;;7.37;53.28;99785.06;4876089;29;20073;-78
2021/10/19 09:27:07;;;;;;;;;;;;;;;7.36;53.05;99780.75;4888319;29;20426;-76
2021/10/19 09:29:40;;;;;;;;;;;;;;;7.35;53.33;99785.94;4888012;29;19923;-77
2021/10/19 09:32:07;;;;;;;;;;;;;;;7.43;53.48;99779.03;4888211;29;19935;-76
2021/10/19 09:34:34;;;;;;;;;;;;;;;7.46;53.10;99785.97;4881741;29;20003;-76
2021/10/19 09:37:00;;;;;;;;;;;;;;;7.48;53.48;99785.09;4891221;29;19923;-76
2021/10/19 09:39:30;;;;;;;;;;;;;;;7.57;53.05;99789.44;4877749;29;19927;-75
2021/10/19 09:41:56;;;;;;;;;;;;;;;7.71;52.83;99786.06;4875913;29;19924;-76
2021/10/19 09:44:22;;;;;;;;;;;;;;;7.77;52.73;99789.53;4875816;29;19931;-77
2021/10/19 09:46:47;;;;;;;;;;;;;;;7.86;52.48;99787.78;4874997;29;19963;-79
2021/10/19 09:49:14;;;;;;;;;;;;;;;8.02;52.61;99781.78;4888617;29;19930;-78
2021/10/19 09:51:40;;;;;;;;;;;;;;;8.23;52.18;99787.84;4886940;29;19946;-77
2021/10/19 09:54:10;;;;;;;;;;;;;;;8.35;52.03;99787.84;4875966;29;21511;-77
2021/10/19 09:56:37;;;;;;;;;;;;;;;8.26;51.25;99786.13;4875222;29;19927;-77
2021/10/19 09:59:02;;;;;;;;;;;;;;;8.18;51.78;99781.81;4873959;29;20323;-77
2021/10/19 10:01:28;;;;;;;;;;;;;;;8.02;51.50;99779.19;4874872;29;19923;-75
2021/10/19 10:03:55;;;;;;;;;;;;;;;7.95;51.93;99786.06;4875400;29;20272;-77
2021/10/19 10:06:24;;;;;;;;;;;;;;;7.94;51.66;99796.44;4877154;29;19923;-77
2021/10/19 10:08:55;;;;;;;;;;;;;;;7.88;51.56;99794.72;4875103;29;19923;-76
2021/10/19 10:11:21;;;;;;;;;;;;;;;7.91;51.88;99793.84;4862281;29;19923;-77
2021/10/19 10:13:57;;;;;;;;;;;;;;;7.96;51.87;99797.31;4877672;29;20022;-78
2021/10/19 10:16:23;;;;;;;;;;;;;;;7.96;51.60;99794.72;4860517;29;19923;-75
2021/10/19 10:18:48;;;;;;;;;;;;;;;7.98;51.79;99791.28;4885523;29;19979;-77
2021/10/19 10:21:15;;;;;;;;;;;;;;;8.01;51.92;99787.84;4859530;29;20060;-76
2021/10/19 10:23:44;;;;;;;;;;;;;;;8.07;51.69;99793.00;4875578;29;19952;-78
2021/10/19 10:26:26;;;;;;;;;;;;;;;8.01;51.35;99781.78;4875015;29;19931;-78
2021/10/19 10:29:14;;;;;;;;;;;;;;;8.09;51.63;99791.28;4874279;29;20018;-76
2021/10/19 10:31:48;;;;;;;;;;;;;;;8.16;51.42;99787.00;4876608;29;20137;-78
2021/10/19 10:34:14;;;;;;;;;;;;;;;8.12;51.41;99786.09;4877891;29;20014;-79
2021/10/19 10:36:45;;;;;;;;;;;;;;;8.06;51.40;99780.06;4865271;29;19929;-78
2021/10/19 10:39:12;;;;;;;;;;;;;;;7.98;51.40;99780.06;4870620;29;19930;-78
2021/10/19 10:41:38;;;;;;;;;;;;;;;7.82;51.42;99782.63;4853801;29;19995;-78
2021/10/19 10:44:03;;;;;;;;;;;;;;;7.68;50.69;99784.31;4890048;29;19924;-79
2021/10/19 10:46:29;;;;;;;;;;;;;;;7.53;51.26;99786.00;4876303;29;20192;-77
2021/10/19 10:48:57;;;;;;;;;;;;;;;7.44;51.81;99793.72;4858450;29;19928;-77
2021/10/19 10:51:27;;;;;;;;;;;;;;;7.43;51.70;99783.38;4886135;29;19928;-78
2021/10/19 10:54:00;;;;;;;;;;;;;;;7.51;51.66;99792.88;4875105;29;19938;-77
2021/10/19 10:56:39;;;;;;;;;;;;;;;7.55;51.81;99798.94;4886137;29;20015;-79
2021/10/19 10:59:04;;;;;;;;;;;;;;;7.59;51.55;99792.91;4866630;29;20364;-77
2021/10/19 11:01:31;;;;;;;;;;;;;;;7.62;51.73;99794.63;4889689;29;19933;-74
2021/10/19 11:04:08;;;;;;;;;;;;;;;7.74;51.63;99788.63;4901083;29;19959;-77
2021/10/19 11:06:34;;;;;;;;;;;;;;;7.79;51.13;99787.81;4876438;29;20391;-79
2021/10/19 11:09:01;;;;;;;;;;;;;;;7.81;51.22;99786.09;4888915;29;20006;-78
2021/10/19 11:11:31;;;;;;;;;;;;;;;7.84;51.46;99783.47;4875433;29;19938;-78
2021/10/19 11:14:01;;;;;;;;;;;;;;;7.92;51.17;99788.69;4875500;29;19930;-77
2021/10/19 11:16:26;;;;;;;;;;;;;;;7.94;50.93;99792.16;4887675;29;20072;-79
2021/10/19 11:18:52;;;;;;;;;;;;;;;7.98;51.00;99785.25;4878355;29;19934;-78
2021/10/19 11:21:18;;;;;;;;;;;;;;;7.94;50.90;99791.28;4873807;29;19930;-77
2021/10/19 11:23:43;;;;;;;;;;;;;;;7.94;50.84;99799.03;4876536;29;19930;-76
2021/10/19 11:26:09;;;;;;;;;;;;;;;7.91;50.55;99786.09;4873681;29;19930;-77
2021/10/19 11:28:36;;;;;;;;;;;;;;;7.93;50.95;99793.00;4887089;29;20376;-76
2021/10/19 11:31:02;;;;;;;;;;;;;;;7.83;50.61;99797.28;4886590;29;19928;-78
2021/10/19 11:33:28;;;;;;;;;;;;;;;7.68;50.52;99800.72;4888358;29;19977;-77
2021/10/19 11:35:53;;;;;;;;;;;;;;;7.65;50.65;99798.13;4873914;29;20448;-78
2021/10/19 11:38:20;;;;;;;;;;;;;;;7.64;50.86;99793.78;4890921;29;19955;-78
2021/10/19 11:40:47;;;;;;;;;;;;;;;7.64;50.55;99795.50;4890895;29;20438;-77
2021/10/19 11:43:12;;;;;;;;;;;;;;;7.59;50.47;99798.09;4890897;29;19995;-77
2021/10/19 11:45:37;;;;;;;;;;;;;;;7.60;50.28;99793.78;4877733;29;19923;-78
2021/10/19 11:48:03;;;;;;;;;;;;;;;7.65;50.56;99799.81;4873529;29;19923;-78
2021/10/19 11:50:30;;;;;;;;;;;;;;;7.72;50.04;99793.81;4872968;29;20396;-78
2021/10/19 11:52:56;;;;;;;;;;;;;;;7.82;49.97;99803.34;4887528;29;19945;-78
2021/10/19 11:55:22;;;;;;;;;;;;;;;7.88;49.72;99804.22;4888109;29;19951;-77
2021/10/19 11:58:13;;;;;;;;;;;;;;;7.87;49.70;99805.06;4875271;29;20433;-77
2021/10/19 12:00:45;;;;;;;;;;;;;;;7.81;49.53;99812.00;4889484;29;20549;-78
2021/10/19 12:03:10;;;;;;;;;;;;;;;7.79;49.49;99807.63;4888549;29;20124;-78
2021/10/19 12:05:43;;;;;;;;;;;;;;;7.80;49.45;99805.06;4905428;29;20051;-76
2021/10/19 12:08:21;;;;;;;;;;;;;;;7.84;49.35;99806.78;4928612;29;19946;-78
2021/10/19 12:11:14;;;;;;;;;;;;;;;7.83;49.15;99810.22;4928910;29;20474;-78
2021/10/19 12:13:49;;;;;;;;;;;;;;;7.84;48.86;99809.38;4913968;29;19930;-77
2021/10/19 12:16:23;;;;;;;;;;;;;;;7.79;49.07;99812.81;4900260;29;19922;-74
2021/10/19 12:19:33;;;;;;;;;;;;;;;7.75;49.30;99809.38;4914290;29;19926;-78
2021/10/19 12:22:11;;;;;;;;;;;;;;;7.73;49.06;99808.50;4900602;29;19973;-77
2021/10/19 12:24:47;;;;;;;;;;;;;;;7.71;48.92;99809.38;4912253;29;19954;-77
2021/10/19 12:27:17;;;;;;;;;;;;;;;7.69;48.95;99812.81;4916853;29;19965;-75
2021/10/19 12:29:45;;;;;;;;;;;;;;;7.64;48.74;99817.09;4932876;29;20477;-74
2021/10/19 12:32:12;;;;;;;;;;;;;;;7.63;49.38;99817.09;4924872;29;19930;-76
2021/10/19 12:34:57;;;;;;;;;;;;;;;7.64;49.48;99818.81;4928204;29;19958;-78
2021/10/19 12:37:36;;;;;;;;;;;;;;;7.63;49.33;99812.78;4854310;29;20404;-76
2021/10/19 12:40:11;;;;;;;;;;;;;;;7.67;49.48;99821.41;4876472;29;19963;-75
2021/10/19 12:42:36;;;;;;;;;;;;;;;7.67;49.15;99816.25;4892240;29;20380;-77
2021/10/19 12:45:45;;;;;;;;;;;;;;;7.68;49.30;99810.19;4889107;29;19931;-76
2021/10/19 12:48:11;;;;;;;;;;;;;;;7.55;49.01;99811.88;4878727;29;19927;-76
2021/10/19 12:50:40;;;;;;;;;;;;;;;7.50;49.27;99809.28;4889901;29;19927;-76
2021/10/19 12:53:09;;;;;;;;;;;;;;;7.52;49.57;99809.28;4890795;29;19929;-78
2021/10/19 12:55:37;;;;;;;;;;;;;;;7.47;49.62;99811.84;4884121;29;20360;-76
2021/10/19 12:58:32;;;;;;;;;;;;;;;7.51;49.43;99818.78;4893904;29;20010;-76